Time;durP1;ratioP1;P1;durP2;ratioP2;P2;SDS_P1;SDS_P2;PMS_P1;PMS_P2;Temp;Humidity;BMP_temperature;BMP_pressure;BME280_temperature;BME280_humidity;BME280_pressure;Samples;Min_cycle;Max_cycle;Signal;HPM_P1;HPM_P2
2022/04/08 00:01:28;;;;;;;;;0.00;0.00;;;;;;;;5054081;28;10850;-74
2022/04/08 00:03:57;;;;;;;;;0.00;0.00;;;;;;;;5057968;28;10980;-73
2022/04/08 00:06:24;;;;;;;;;1.00;0.75;;;;;;;;5059195;28;11021;-73
2022/04/08 00:08:52;;;;;;;;;1.00;1.00;;;;;;;;5056471;28;10841;-73
2022/04/08 00:11:19;;;;;;;;;0.00;0.00;;;;;;;;5047006;28;10757;-73
2022/04/08 00:13:51;;;;;;;;;1.50;1.25;;;;;;;;5059101;28;11651;-74
2022/04/08 00:16:19;;;;;;;;;0.25;0.00;;;;;;;;5050453;28;10922;-74
2022/04/08 00:18:46;;;;;;;;;0.00;0.00;;;;;;;;5047371;28;10999;-75
2022/04/08 00:21:15;;;;;;;;;2.25;0.25;;;;;;;;5052175;28;10982;-74
2022/04/08 00:23:43;;;;;;;;;2.00;0.50;;;;;;;;5059106;28;11023;-75
2022/04/08 00:26:11;;;;;;;;;2.00;0.00;;;;;;;;5051166;28;10960;-74
2022/04/08 00:28:38;;;;;;;;;0.50;0.50;;;;;;;;5051410;28;11030;-74
2022/04/08 00:31:05;;;;;;;;;0.00;0.00;;;;;;;;5051143;28;10973;-74
2022/04/08 00:33:33;;;;;;;;;2.00;1.00;;;;;;;;5052022;28;11008;-74
2022/04/08 00:36:01;;;;;;;;;0.00;0.00;;;;;;;;5057874;28;10851;-74
2022/04/08 00:38:30;;;;;;;;;4.25;1.00;;;;;;;;5052958;28;10887;-74
2022/04/08 00:40:58;;;;;;;;;0.00;0.00;;;;;;;;5049677;28;11027;-74
2022/04/08 00:43:34;;;;;;;;;0.00;0.00;;;;;;;;5055094;28;10844;-74
2022/04/08 00:46:01;;;;;;;;;0.00;0.00;;;;;;;;5053999;28;10894;-74
2022/04/08 00:48:29;;;;;;;;;5.50;1.50;;;;;;;;5052032;28;11407;-74
2022/04/08 00:50:57;;;;;;;;;2.25;1.00;;;;;;;;5051808;28;11021;-74
2022/04/08 00:53:25;;;;;;;;;0.00;0.00;;;;;;;;5053371;28;10982;-74
2022/04/08 00:55:54;;;;;;;;;0.00;0.00;;;;;;;;5052505;28;10968;-74
2022/04/08 00:58:22;;;;;;;;;0.00;0.00;;;;;;;;5053437;28;10897;-74
2022/04/08 01:00:49;;;;;;;;;0.00;0.00;;;;;;;;5050750;28;11289;-74
2022/04/08 01:03:17;;;;;;;;;2.00;0.25;;;;;;;;5056632;28;11018;-74
2022/04/08 01:05:44;;;;;;;;;0.00;0.00;;;;;;;;5047717;28;11070;-74
2022/04/08 01:08:14;;;;;;;;;1.00;1.00;;;;;;;;5050681;28;11058;-74
2022/04/08 01:10:42;;;;;;;;;0.00;0.00;;;;;;;;5055648;28;11205;-74
2022/04/08 01:13:10;;;;;;;;;0.00;0.00;;;;;;;;5048410;28;11108;-74
2022/04/08 01:15:38;;;;;;;;;0.00;0.00;;;;;;;;5055356;28;10958;-74
2022/04/08 01:18:06;;;;;;;;;0.00;0.00;;;;;;;;5052360;28;11140;-75
2022/04/08 01:20:33;;;;;;;;;0.75;0.00;;;;;;;;5057630;28;11067;-74
2022/04/08 01:23:00;;;;;;;;;1.00;1.00;;;;;;;;5047715;28;11006;-75
2022/04/08 01:25:30;;;;;;;;;0.00;0.00;;;;;;;;5053221;28;11213;-74
2022/04/08 01:27:57;;;;;;;;;0.00;0.00;;;;;;;;5049930;28;11196;-74
2022/04/08 01:30:24;;;;;;;;;1.50;0.00;;;;;;;;5052171;28;10878;-74
2022/04/08 01:32:52;;;;;;;;;1.50;0.00;;;;;;;;5056373;28;11947;-74
2022/04/08 01:35:19;;;;;;;;;0.00;0.00;;;;;;;;5055713;28;10971;-74
2022/04/08 01:37:46;;;;;;;;;3.75;0.00;;;;;;;;5055820;28;11133;-74
2022/04/08 01:40:14;;;;;;;;;0.00;0.00;;;;;;;;5086950;28;11216;-74
2022/04/08 01:42:43;;;;;;;;;0.00;0.00;;;;;;;;5051249;28;11227;-74
2022/04/08 01:45:11;;;;;;;;;1.00;0.00;;;;;;;;5053438;28;12117;-74
2022/04/08 01:47:38;;;;;;;;;1.00;1.00;;;;;;;;5047657;28;11167;-74
2022/04/08 01:50:07;;;;;;;;;0.00;0.00;;;;;;;;5050937;28;11131;-74
2022/04/08 01:52:34;;;;;;;;;1.00;1.00;;;;;;;;5050913;28;11208;-74
2022/04/08 01:55:05;;;;;;;;;0.50;0.00;;;;;;;;5053558;28;11143;-74
2022/04/08 01:57:33;;;;;;;;;0.00;0.00;;;;;;;;5055536;28;11805;-74
2022/04/08 02:00:02;;;;;;;;;1.00;1.00;;;;;;;;5055567;28;11237;-74
2022/04/08 02:02:29;;;;;;;;;2.00;0.00;;;;;;;;5056572;28;11212;-74
2022/04/08 02:04:57;;;;;;;;;0.00;0.00;;;;;;;;5062796;28;11053;-74
2022/04/08 02:07:26;;;;;;;;;0.00;0.00;;;;;;;;5059601;28;11180;-74
2022/04/08 02:09:53;;;;;;;;;1.50;0.00;;;;;;;;5059939;28;11121;-74
2022/04/08 02:12:21;;;;;;;;;0.00;0.00;;;;;;;;5058959;28;11131;-74
2022/04/08 02:14:48;;;;;;;;;1.25;0.00;;;;;;;;5060859;28;12483;-74
2022/04/08 02:17:17;;;;;;;;;0.00;0.00;;;;;;;;5055679;28;11288;-75
2022/04/08 02:19:44;;;;;;;;;0.75;0.00;;;;;;;;5054899;28;11882;-75
2022/04/08 02:22:12;;;;;;;;;1.00;0.00;;;;;;;;5059238;28;11185;-74
2022/04/08 02:24:39;;;;;;;;;0.00;0.00;;;;;;;;5062480;28;10955;-74
2022/04/08 02:27:06;;;;;;;;;0.00;0.00;;;;;;;;5055146;28;12020;-75
2022/04/08 02:29:34;;;;;;;;;1.50;0.00;;;;;;;;5060828;28;11043;-74
2022/04/08 02:32:02;;;;;;;;;2.00;0.50;;;;;;;;5058450;28;11845;-74
2022/04/08 02:34:31;;;;;;;;;1.00;1.00;;;;;;;;5050096;28;11998;-74
2022/04/08 02:36:58;;;;;;;;;0.50;0.50;;;;;;;;5054930;28;11339;-73
2022/04/08 02:39:26;;;;;;;;;0.00;0.00;;;;;;;;5057817;28;11155;-74
2022/04/08 02:41:53;;;;;;;;;2.75;0.50;;;;;;;;5056065;28;11109;-73
2022/04/08 02:44:20;;;;;;;;;0.00;0.00;;;;;;;;5057984;28;11161;-73
2022/04/08 02:46:47;;;;;;;;;0.00;0.00;;;;;;;;5055621;28;11219;-73
2022/04/08 02:49:15;;;;;;;;;2.00;0.00;;;;;;;;5061238;28;11196;-73
2022/04/08 02:51:43;;;;;;;;;0.00;0.00;;;;;;;;5059077;28;11112;-73
2022/04/08 02:54:13;;;;;;;;;1.00;1.00;;;;;;;;5055717;28;11172;-73
2022/04/08 02:56:41;;;;;;;;;1.00;0.00;;;;;;;;5056014;28;11053;-73
2022/04/08 02:59:08;;;;;;;;;0.00;0.00;;;;;;;;5056382;28;11199;-73
2022/04/08 03:01:35;;;;;;;;;0.75;0.00;;;;;;;;5058629;28;11107;-73
2022/04/08 03:04:05;;;;;;;;;1.00;0.00;;;;;;;;5047326;28;11092;-73
2022/04/08 03:06:33;;;;;;;;;0.00;0.00;;;;;;;;5057077;28;11145;-73
2022/04/08 03:09:02;;;;;;;;;0.25;0.25;;;;;;;;5058521;28;10984;-73
2022/04/08 03:11:29;;;;;;;;;0.00;0.00;;;;;;;;5057170;28;10971;-73
2022/04/08 03:13:59;;;;;;;;;2.00;1.00;;;;;;;;5047515;28;11080;-73
2022/04/08 03:16:26;;;;;;;;;0.00;0.00;;;;;;;;5052361;28;11029;-73
2022/04/08 03:18:53;;;;;;;;;0.00;0.00;;;;;;;;5054703;28;11195;-73
2022/04/08 03:21:21;;;;;;;;;0.00;0.00;;;;;;;;5057860;28;11000;-73
2022/04/08 03:23:49;;;;;;;;;2.75;0.00;;;;;;;;5053799;28;11173;-74
2022/04/08 03:26:18;;;;;;;;;0.00;0.00;;;;;;;;5053988;28;11046;-73
2022/04/08 03:28:46;;;;;;;;;1.25;0.00;;;;;;;;5044303;28;10976;-73
2022/04/08 03:31:13;;;;;;;;;1.00;0.00;;;;;;;;5051555;28;10930;-74
2022/04/08 03:33:41;;;;;;;;;0.50;0.00;;;;;;;;5054525;28;11011;-73
2022/04/08 03:36:09;;;;;;;;;0.00;0.00;;;;;;;;5046421;28;10917;-73
2022/04/08 03:38:37;;;;;;;;;0.00;0.00;;;;;;;;5048882;28;10966;-73
2022/04/08 03:41:04;;;;;;;;;0.00;0.00;;;;;;;;5051731;28;10908;-73
2022/04/08 03:43:34;;;;;;;;;0.75;0.00;;;;;;;;5053376;28;10832;-72
2022/04/08 03:46:01;;;;;;;;;0.00;0.00;;;;;;;;5053639;28;11061;-73
2022/04/08 03:48:29;;;;;;;;;0.00;0.00;;;;;;;;5045949;28;10980;-73
2022/04/08 03:50:56;;;;;;;;;0.00;0.00;;;;;;;;5047849;28;10956;-74
2022/04/08 03:53:23;;;;;;;;;0.75;0.75;;;;;;;;5045157;28;11009;-73
2022/04/08 03:55:51;;;;;;;;;0.00;0.00;;;;;;;;5055994;28;10896;-72
2022/04/08 03:58:18;;;;;;;;;0.00;0.00;;;;;;;;5053879;28;11665;-73
2022/04/08 04:00:47;;;;;;;;;1.00;1.00;;;;;;;;5053000;28;10934;-73
2022/04/08 04:03:14;;;;;;;;;2.00;0.25;;;;;;;;5060014;28;11013;-72
2022/04/08 04:05:43;;;;;;;;;2.50;0.00;;;;;;;;5056526;28;11038;-75
2022/04/08 04:08:15;;;;;;;;;1.00;1.00;;;;;;;;5061051;28;10905;-76
2022/04/08 04:10:42;;;;;;;;;0.00;0.00;;;;;;;;5049941;28;10952;-75
2022/04/08 04:13:09;;;;;;;;;0.00;0.00;;;;;;;;5053893;28;11007;-76
2022/04/08 04:15:36;;;;;;;;;0.75;0.75;;;;;;;;5059810;28;10950;-77
2022/04/08 04:18:05;;;;;;;;;0.00;0.00;;;;;;;;5057795;28;11964;-74
2022/04/08 04:20:33;;;;;;;;;0.00;0.00;;;;;;;;5054736;28;11088;-75
2022/04/08 04:23:01;;;;;;;;;1.75;0.00;;;;;;;;5062017;28;10826;-76
2022/04/08 04:25:28;;;;;;;;;1.50;0.00;;;;;;;;5052662;28;10969;-76
2022/04/08 04:27:55;;;;;;;;;0.00;0.00;;;;;;;;5056598;28;10890;-75
2022/04/08 04:30:23;;;;;;;;;5.75;2.00;;;;;;;;5058485;28;10838;-76
2022/04/08 04:32:51;;;;;;;;;2.00;2.00;;;;;;;;5039583;28;11123;-75
2022/04/08 04:35:20;;;;;;;;;0.00;0.00;;;;;;;;5031691;28;10888;-74
2022/04/08 04:37:47;;;;;;;;;0.25;0.00;;;;;;;;5033093;28;10914;-75
2022/04/08 04:40:14;;;;;;;;;0.00;0.00;;;;;;;;5032528;28;10897;-73
2022/04/08 04:42:42;;;;;;;;;1.25;0.25;;;;;;;;5041864;28;10669;-74
2022/04/08 04:45:10;;;;;;;;;1.00;1.00;;;;;;;;5036447;28;10698;-73
2022/04/08 04:47:38;;;;;;;;;0.00;0.00;;;;;;;;5039223;28;11924;-74
2022/04/08 04:50:06;;;;;;;;;0.50;0.00;;;;;;;;5034312;28;10849;-74
2022/04/08 04:52:35;;;;;;;;;0.00;0.00;;;;;;;;5038425;28;10854;-75
2022/04/08 04:55:02;;;;;;;;;0.00;0.00;;;;;;;;5037561;28;10678;-74
2022/04/08 04:57:29;;;;;;;;;0.00;0.00;;;;;;;;5038426;28;10859;-73
2022/04/08 04:59:57;;;;;;;;;1.25;0.00;;;;;;;;5041008;28;10924;-74
2022/04/08 05:02:24;;;;;;;;;0.25;0.25;;;;;;;;5041787;28;10801;-75
2022/04/08 05:04:52;;;;;;;;;0.00;0.00;;;;;;;;5045088;28;10737;-79
2022/04/08 05:07:19;;;;;;;;;0.00;0.00;;;;;;;;5040881;28;10811;-77
2022/04/08 05:09:48;;;;;;;;;2.00;1.00;;;;;;;;5039036;28;10946;-79
2022/04/08 05:12:15;;;;;;;;;1.75;1.00;;;;;;;;5039659;28;10733;-79
2022/04/08 05:14:43;;;;;;;;;2.00;0.00;;;;;;;;5034371;28;10764;-77
2022/04/08 05:17:10;;;;;;;;;2.00;0.00;;;;;;;;5034153;28;10901;-77
2022/04/08 05:19:38;;;;;;;;;1.00;0.00;;;;;;;;5037045;28;10682;-78
2022/04/08 05:22:05;;;;;;;;;0.00;0.00;;;;;;;;5032548;28;10704;-76
2022/04/08 05:24:33;;;;;;;;;1.00;0.00;;;;;;;;5028322;28;10898;-76
2022/04/08 05:27:01;;;;;;;;;0.00;0.00;;;;;;;;5040058;28;10829;-77
2022/04/08 05:29:29;;;;;;;;;4.50;2.75;;;;;;;;5036929;28;10607;-75
2022/04/08 05:31:56;;;;;;;;;2.25;1.00;;;;;;;;5028003;28;11820;-77
2022/04/08 05:34:23;;;;;;;;;0.00;0.00;;;;;;;;5030908;28;10823;-77
2022/04/08 05:36:50;;;;;;;;;1.00;0.75;;;;;;;;5040051;28;10657;-76
2022/04/08 05:39:18;;;;;;;;;0.75;0.75;;;;;;;;5035491;28;10819;-76
2022/04/08 05:41:45;;;;;;;;;1.25;0.00;;;;;;;;5039937;28;10803;-77
2022/04/08 05:44:13;;;;;;;;;0.00;0.00;;;;;;;;5041863;28;11482;-77
2022/04/08 05:46:41;;;;;;;;;0.00;0.00;;;;;;;;5040339;28;10822;-75
2022/04/08 05:49:08;;;;;;;;;0.00;0.00;;;;;;;;5037364;28;10913;-75
2022/04/08 05:51:35;;;;;;;;;1.00;0.00;;;;;;;;5040843;28;10918;-75
2022/04/08 05:54:03;;;;;;;;;0.75;0.00;;;;;;;;5033514;28;10903;-74
2022/04/08 05:56:31;;;;;;;;;0.00;0.00;;;;;;;;5032213;28;10921;-75
2022/04/08 05:58:59;;;;;;;;;0.00;0.00;;;;;;;;5040072;28;10886;-75
2022/04/08 06:01:29;;;;;;;;;2.00;0.00;;;;;;;;5032206;28;11036;-76
2022/04/08 06:03:56;;;;;;;;;0.50;0.50;;;;;;;;5034481;28;11076;-74
2022/04/08 06:06:25;;;;;;;;;1.25;0.00;;;;;;;;5041147;28;11029;-74
2022/04/08 06:08:52;;;;;;;;;2.00;0.00;;;;;;;;5040622;28;11025;-75
2022/04/08 06:11:19;;;;;;;;;0.00;0.00;;;;;;;;5039292;28;11145;-74
2022/04/08 06:13:46;;;;;;;;;0.00;0.00;;;;;;;;5040948;28;11055;-75
2022/04/08 06:16:14;;;;;;;;;0.00;0.00;;;;;;;;5039578;28;11043;-74
2022/04/08 06:18:43;;;;;;;;;0.00;0.00;;;;;;;;5040798;28;11012;-74
2022/04/08 06:21:10;;;;;;;;;1.25;0.00;;;;;;;;5039468;28;11159;-74
2022/04/08 06:23:37;;;;;;;;;0.00;0.00;;;;;;;;5028257;28;11117;-75
2022/04/08 06:26:04;;;;;;;;;0.75;0.00;;;;;;;;5044106;28;11084;-76
2022/04/08 06:28:32;;;;;;;;;1.25;0.00;;;;;;;;5040381;28;11092;-74
2022/04/08 06:30:59;;;;;;;;;0.00;0.00;;;;;;;;5038185;28;10944;-74
2022/04/08 06:33:26;;;;;;;;;0.25;0.25;;;;;;;;5035143;28;10947;-75
2022/04/08 06:35:55;;;;;;;;;0.00;0.00;;;;;;;;5044930;28;10947;-75
2022/04/08 06:38:22;;;;;;;;;0.00;0.00;;;;;;;;5038369;28;10947;-74
2022/04/08 06:40:49;;;;;;;;;0.00;0.00;;;;;;;;5024333;28;11035;-74
2022/04/08 06:43:17;;;;;;;;;0.00;0.00;;;;;;;;5023656;28;11085;-75
2022/04/08 06:45:44;;;;;;;;;0.25;0.25;;;;;;;;5037803;28;10828;-75
2022/04/08 06:48:11;;;;;;;;;3.00;0.25;;;;;;;;5044843;28;11576;-75
2022/04/08 06:50:39;;;;;;;;;0.00;0.00;;;;;;;;5044332;28;11090;-75
2022/04/08 06:53:08;;;;;;;;;0.75;0.75;;;;;;;;5045261;28;10868;-75
2022/04/08 06:55:35;;;;;;;;;1.00;1.00;;;;;;;;5043841;28;10861;-75
2022/04/08 06:58:04;;;;;;;;;3.00;1.50;;;;;;;;5045419;28;10986;-75
2022/04/08 07:00:32;;;;;;;;;2.00;2.00;;;;;;;;5043593;28;10873;-75
2022/04/08 07:02:59;;;;;;;;;1.50;1.50;;;;;;;;5072256;28;10926;-75
2022/04/08 07:05:28;;;;;;;;;3.00;3.00;;;;;;;;5042656;28;10973;-75
2022/04/08 07:07:56;;;;;;;;;2.00;2.00;;;;;;;;5023888;28;10963;-75
2022/04/08 07:10:24;;;;;;;;;12.00;10.75;;;;;;;;5024821;28;11136;-75
2022/04/08 07:12:52;;;;;;;;;11.00;7.75;;;;;;;;5023690;28;11498;-75
2022/04/08 07:15:19;;;;;;;;;11.00;11.00;;;;;;;;5024097;28;11507;-75
2022/04/08 07:17:47;;;;;;;;;1.25;1.25;;;;;;;;5037820;28;11512;-75
2022/04/08 07:20:14;;;;;;;;;3.00;3.00;;;;;;;;5039474;28;10999;-75
2022/04/08 07:22:42;;;;;;;;;0.00;0.00;;;;;;;;5043940;28;10985;-75
2022/04/08 07:25:10;;;;;;;;;2.50;2.00;;;;;;;;5044125;28;10804;-75
2022/04/08 07:27:45;;;;;;;;;1.25;1.25;;;;;;;;5045123;28;10827;-76
2022/04/08 07:30:13;;;;;;;;;6.50;3.50;;;;;;;;5042852;28;10829;-75
2022/04/08 07:32:40;;;;;;;;;3.00;3.00;;;;;;;;5044649;28;10975;-76
2022/04/08 07:35:08;;;;;;;;;1.75;1.75;;;;;;;;5024435;28;11076;-75
2022/04/08 07:37:36;;;;;;;;;4.00;2.00;;;;;;;;5036805;28;10990;-76
2022/04/08 07:40:07;;;;;;;;;2.00;1.00;;;;;;;;5043947;28;11074;-75
2022/04/08 07:42:34;;;;;;;;;0.75;0.75;;;;;;;;5043275;28;10989;-75
2022/04/08 07:45:05;;;;;;;;;0.25;0.25;;;;;;;;5044613;28;11453;-75
2022/04/08 07:47:33;;;;;;;;;1.00;1.00;;;;;;;;5043102;28;10965;-75
2022/04/08 07:50:01;;;;;;;;;0.25;0.25;;;;;;;;5044785;28;11081;-76
2022/04/08 07:52:28;;;;;;;;;0.00;0.00;;;;;;;;5075001;28;11019;-75
2022/04/08 07:54:56;;;;;;;;;0.00;0.00;;;;;;;;5038063;28;11013;-75
2022/04/08 07:57:23;;;;;;;;;0.00;0.00;;;;;;;;5043696;28;10975;-76
2022/04/08 07:59:54;;;;;;;;;0.00;0.00;;;;;;;;5043681;28;10969;-75
2022/04/08 08:02:23;;;;;;;;;1.00;1.00;;;;;;;;5043497;28;11133;-76
2022/04/08 08:04:50;;;;;;;;;1.00;1.00;;;;;;;;5074630;28;11926;-76
2022/04/08 08:07:17;;;;;;;;;5.00;5.00;;;;;;;;5044052;28;11236;-75
2022/04/08 08:09:44;;;;;;;;;2.75;1.50;;;;;;;;5042295;28;11505;-75
2022/04/08 08:12:12;;;;;;;;;0.00;0.00;;;;;;;;5030190;28;12248;-75
2022/04/08 08:14:39;;;;;;;;;2.00;2.00;;;;;;;;5043371;28;11473;-76
2022/04/08 08:17:06;;;;;;;;;4.50;4.50;;;;;;;;5042808;28;12264;-76
2022/04/08 08:19:36;;;;;;;;;2.00;0.50;;;;;;;;5044054;28;11467;-76
2022/04/08 08:22:04;;;;;;;;;11.75;8.00;;;;;;;;5041998;28;11477;-76
2022/04/08 08:24:31;;;;;;;;;10.00;9.75;;;;;;;;5037429;28;11497;-76
2022/04/08 08:26:59;;;;;;;;;9.50;8.50;;;;;;;;5042654;28;12314;-76
2022/04/08 08:29:26;;;;;;;;;7.25;7.25;;;;;;;;5060679;28;11461;-76
2022/04/08 08:31:53;;;;;;;;;6.25;6.25;;;;;;;;5042085;28;11422;-75
2022/04/08 08:34:20;;;;;;;;;1.75;1.75;;;;;;;;5029694;28;11478;-76
2022/04/08 08:36:49;;;;;;;;;3.00;3.00;;;;;;;;5023166;28;11483;-76
2022/04/08 08:39:16;;;;;;;;;3.00;3.00;;;;;;;;5022473;28;11560;-76
2022/04/08 08:41:44;;;;;;;;;1.00;1.00;;;;;;;;5023328;28;11484;-76
2022/04/08 08:44:11;;;;;;;;;5.00;5.00;;;;;;;;5027884;28;11515;-75
2022/04/08 08:46:39;;;;;;;;;0.25;0.00;;;;;;;;5043193;28;11517;-75
2022/04/08 08:49:06;;;;;;;;;2.00;0.00;;;;;;;;5042095;28;11471;-75
2022/04/08 08:51:37;;;;;;;;;2.00;2.00;;;;;;;;5043258;28;11479;-75
2022/04/08 08:54:06;;;;;;;;;1.00;1.00;;;;;;;;5043382;28;11453;-75
2022/04/08 08:56:33;;;;;;;;;1.25;1.25;;;;;;;;5042575;28;11455;-75
2022/04/08 08:59:00;;;;;;;;;0.00;0.00;;;;;;;;5043235;28;11481;-76
2022/04/08 09:01:27;;;;;;;;;0.25;0.25;;;;;;;;5039660;28;11422;-74
2022/04/08 09:03:55;;;;;;;;;0.00;0.00;;;;;;;;5041559;28;11453;-74
2022/04/08 09:06:22;;;;;;;;;4.25;4.25;;;;;;;;5043187;28;11537;-74
2022/04/08 09:08:57;;;;;;;;;1.50;1.50;;;;;;;;5042906;28;12283;-76
2022/04/08 09:11:29;;;;;;;;;0.75;0.75;;;;;;;;5042985;28;11474;-75
2022/04/08 09:14:03;;;;;;;;;0.00;0.00;;;;;;;;5042207;28;11494;-75
2022/04/08 09:16:35;;;;;;;;;0.00;0.00;;;;;;;;5042380;28;11549;-75
2022/04/08 09:19:11;;;;;;;;;0.00;0.00;;;;;;;;5041003;28;11470;-75
2022/04/08 09:21:38;;;;;;;;;0.75;0.75;;;;;;;;5042619;28;11468;-76
2022/04/08 09:24:07;;;;;;;;;0.00;0.00;;;;;;;;5042374;28;11489;-75
2022/04/08 09:26:38;;;;;;;;;0.00;0.00;;;;;;;;5042503;28;11489;-75
2022/04/08 09:29:06;;;;;;;;;0.00;0.00;;;;;;;;5043563;28;11534;-75
2022/04/08 09:31:33;;;;;;;;;0.00;0.00;;;;;;;;5040729;28;11359;-75
2022/04/08 09:34:00;;;;;;;;;1.00;1.00;;;;;;;;5034008;28;11496;-76
2022/04/08 09:36:29;;;;;;;;;0.00;0.00;;;;;;;;5025225;28;11504;-75
2022/04/08 09:38:56;;;;;;;;;0.00;0.00;;;;;;;;5043445;28;11580;-74
2022/04/08 09:41:39;;;;;;;;;0.50;0.50;;;;;;;;5041885;28;11466;-76
2022/04/08 09:44:08;;;;;;;;;0.00;0.00;;;;;;;;5041904;28;11486;-76
2022/04/08 09:46:36;;;;;;;;;0.00;0.00;;;;;;;;5042872;28;12334;-75
2022/04/08 09:49:04;;;;;;;;;0.00;0.00;;;;;;;;5041672;28;11562;-75
2022/04/08 09:51:36;;;;;;;;;0.00;0.00;;;;;;;;5035543;28;11656;-74
2022/04/08 09:54:05;;;;;;;;;2.25;0.00;;;;;;;;5036118;28;12298;-74
2022/04/08 09:56:32;;;;;;;;;0.00;0.00;;;;;;;;5042616;28;11540;-74
2022/04/08 09:59:05;;;;;;;;;0.00;0.00;;;;;;;;5043955;28;12353;-74
2022/04/08 10:01:36;;;;;;;;;0.00;0.00;;;;;;;;5044592;28;11589;-74
2022/04/08 10:04:05;;;;;;;;;1.00;1.00;;;;;;;;5047053;28;11527;-75
2022/04/08 10:06:33;;;;;;;;;1.25;1.25;;;;;;;;5045032;28;11595;-74
2022/04/08 10:09:01;;;;;;;;;0.50;0.50;;;;;;;;5046125;28;11516;-74
2022/04/08 10:11:44;;;;;;;;;6.00;3.00;;;;;;;;5043934;28;11518;-75
2022/04/08 10:14:24;;;;;;;;;0.00;0.00;;;;;;;;5046067;28;11523;-74
2022/04/08 10:16:53;;;;;;;;;0.00;0.00;;;;;;;;5045670;28;11546;-74
2022/04/08 10:19:22;;;;;;;;;2.75;1.00;;;;;;;;5045066;28;11518;-74
2022/04/08 10:21:53;;;;;;;;;2.00;1.25;;;;;;;;5043264;28;11646;-74
2022/04/08 10:24:23;;;;;;;;;0.00;0.00;;;;;;;;5043907;28;12348;-75
2022/04/08 10:27:00;;;;;;;;;0.00;0.00;;;;;;;;5043273;28;11582;-75
2022/04/08 10:29:29;;;;;;;;;0.00;0.00;;;;;;;;5045791;28;11492;-75
2022/04/08 10:31:57;;;;;;;;;4.00;2.25;;;;;;;;5044602;28;11486;-75
2022/04/08 10:34:26;;;;;;;;;1.00;0.00;;;;;;;;5034186;28;11567;-75
2022/04/08 10:36:53;;;;;;;;;0.50;0.00;;;;;;;;5024822;28;11523;-74
2022/04/08 10:39:22;;;;;;;;;0.00;0.00;;;;;;;;5057963;28;11722;-75
2022/04/08 10:41:51;;;;;;;;;0.00;0.00;;;;;;;;5032851;28;11520;-76
2022/04/08 10:44:36;;;;;;;;;0.00;0.00;;;;;;;;5033388;28;11511;-75
2022/04/08 10:47:10;;;;;;;;;2.00;2.00;;;;;;;;5044030;28;11500;-73
2022/04/08 10:49:50;;;;;;;;;1.00;1.00;;;;;;;;5032234;28;11576;-75
2022/04/08 10:52:18;;;;;;;;;5.00;5.00;;;;;;;;5044360;28;11524;-75
2022/04/08 10:54:45;;;;;;;;;1.75;1.00;;;;;;;;5043919;28;11559;-75
2022/04/08 10:57:13;;;;;;;;;1.00;1.00;;;;;;;;5027195;28;11531;-75
2022/04/08 10:59:42;;;;;;;;;0.00;0.00;;;;;;;;5030008;28;11510;-74
2022/04/08 11:02:12;;;;;;;;;0.00;0.00;;;;;;;;5043276;28;11483;-75
2022/04/08 11:04:40;;;;;;;;;0.50;0.50;;;;;;;;5032249;28;12223;-75
2022/04/08 11:07:07;;;;;;;;;1.25;1.00;;;;;;;;5044038;28;11538;-75
2022/04/08 11:09:36;;;;;;;;;1.00;1.00;;;;;;;;5044490;28;11537;-75
2022/04/08 11:12:04;;;;;;;;;0.50;0.50;;;;;;;;5042757;28;11618;-77
2022/04/08 11:14:31;;;;;;;;;1.00;1.00;;;;;;;;5044739;28;11549;-74
2022/04/08 11:17:00;;;;;;;;;0.00;0.00;;;;;;;;5042050;28;11561;-74
2022/04/08 11:19:28;;;;;;;;;0.25;0.25;;;;;;;;5043816;28;11496;-74
2022/04/08 11:21:55;;;;;;;;;2.00;0.00;;;;;;;;5035414;28;11890;-75
2022/04/08 11:24:23;;;;;;;;;0.00;0.00;;;;;;;;5041810;28;12927;-76
2022/04/08 11:26:52;;;;;;;;;0.00;0.00;;;;;;;;5044671;28;11519;-78
2022/04/08 11:29:22;;;;;;;;;0.00;0.00;;;;;;;;5035167;28;11506;-75
2022/04/08 11:31:50;;;;;;;;;1.00;1.00;;;;;;;;5041575;28;11516;-76
2022/04/08 11:34:24;;;;;;;;;0.00;0.00;;;;;;;;5038899;28;11522;-78
2022/04/08 11:36:54;;;;;;;;;0.00;0.00;;;;;;;;5042617;28;11520;-75
2022/04/08 11:39:22;;;;;;;;;0.00;0.00;;;;;;;;5042028;28;11514;-78
2022/04/08 11:41:53;;;;;;;;;0.00;0.00;;;;;;;;5043068;28;12268;-75
2022/04/08 11:44:21;;;;;;;;;0.00;0.00;;;;;;;;5044446;28;12333;-76
2022/04/08 11:46:49;;;;;;;;;1.00;1.00;;;;;;;;5043245;28;11515;-76
2022/04/08 11:49:18;;;;;;;;;2.25;2.25;;;;;;;;5076315;28;11533;-75
2022/04/08 11:51:46;;;;;;;;;6.00;6.00;;;;;;;;5037933;28;11595;-76
2022/04/08 11:54:13;;;;;;;;;2.00;2.00;;;;;;;;5039241;28;12329;-76
2022/04/08 11:56:49;;;;;;;;;0.75;0.75;;;;;;;;5043889;28;11577;-76
2022/04/08 11:59:16;;;;;;;;;2.25;0.00;;;;;;;;5038981;28;12290;-76
2022/04/08 12:01:43;;;;;;;;;0.00;0.00;;;;;;;;5023651;28;11477;-76
2022/04/08 12:04:12;;;;;;;;;0.00;0.00;;;;;;;;5023924;28;11523;-77
2022/04/08 12:06:43;;;;;;;;;0.00;0.00;;;;;;;;5024202;28;11535;-76
2022/04/08 12:09:11;;;;;;;;;0.00;0.00;;;;;;;;5031653;28;11514;-79
2022/04/08 12:11:39;;;;;;;;;0.50;0.50;;;;;;;;5043382;28;12124;-77
2022/04/08 12:14:09;;;;;;;;;5.75;4.00;;;;;;;;5044254;28;11523;-76
2022/04/08 12:16:37;;;;;;;;;5.25;3.00;;;;;;;;5042466;28;11552;-76
2022/04/08 12:19:06;;;;;;;;;3.00;3.00;;;;;;;;5043993;28;11549;-77
2022/04/08 12:21:35;;;;;;;;;1.00;1.00;;;;;;;;5040260;28;12393;-79
2022/04/08 12:24:06;;;;;;;;;6.75;2.75;;;;;;;;5043732;28;11500;-76
2022/04/08 12:26:35;;;;;;;;;7.00;5.75;;;;;;;;5042661;28;11571;-76
2022/04/08 12:29:07;;;;;;;;;6.00;5.75;;;;;;;;5043424;28;11610;-77
2022/04/08 12:31:35;;;;;;;;;4.00;4.00;;;;;;;;5042673;28;11447;-76
2022/04/08 12:34:02;;;;;;;;;5.50;5.50;;;;;;;;5032869;28;11567;-76
2022/04/08 12:36:30;;;;;;;;;0.00;0.00;;;;;;;;5039571;28;11645;-78
2022/04/08 12:38:57;;;;;;;;;0.50;0.50;;;;;;;;5042259;28;11543;-76
2022/04/08 12:41:26;;;;;;;;;0.75;0.75;;;;;;;;5043479;28;11510;-76
2022/04/08 12:43:54;;;;;;;;;1.00;1.00;;;;;;;;5037183;28;11561;-76
2022/04/08 12:46:22;;;;;;;;;2.00;2.00;;;;;;;;5042910;28;12328;-76
2022/04/08 12:48:49;;;;;;;;;1.75;0.75;;;;;;;;5043492;28;11527;-76
2022/04/08 12:51:17;;;;;;;;;2.00;2.00;;;;;;;;5042529;28;11636;-76
2022/04/08 12:53:45;;;;;;;;;1.00;1.00;;;;;;;;5043368;28;11555;-76
2022/04/08 12:56:12;;;;;;;;;1.25;1.25;;;;;;;;5042024;28;12309;-76
2022/04/08 12:58:41;;;;;;;;;0.25;0.25;;;;;;;;5042994;28;11498;-76
2022/04/08 13:01:08;;;;;;;;;1.00;1.00;;;;;;;;5041031;28;11451;-76
2022/04/08 13:03:35;;;;;;;;;0.00;0.00;;;;;;;;5043666;28;11645;-75
2022/04/08 13:06:03;;;;;;;;;1.00;1.00;;;;;;;;5042199;28;11676;-75
2022/04/08 13:08:30;;;;;;;;;5.00;1.00;;;;;;;;5042213;28;11566;-75
2022/04/08 13:10:58;;;;;;;;;2.00;2.00;;;;;;;;5074898;28;11499;-76
2022/04/08 13:13:25;;;;;;;;;1.00;1.00;;;;;;;;5042129;28;11612;-75
2022/04/08 13:15:54;;;;;;;;;0.00;0.00;;;;;;;;5043160;28;11647;-75
2022/04/08 13:18:22;;;;;;;;;0.00;0.00;;;;;;;;5040960;28;11532;-76
2022/04/08 13:20:49;;;;;;;;;1.00;0.00;;;;;;;;5043210;28;12257;-76
2022/04/08 13:23:17;;;;;;;;;0.00;0.00;;;;;;;;5042534;28;11601;-76
2022/04/08 13:25:44;;;;;;;;;0.00;0.00;;;;;;;;5041793;28;11523;-75
2022/04/08 13:28:13;;;;;;;;;2.25;2.25;;;;;;;;5042585;28;11498;-75
2022/04/08 13:30:41;;;;;;;;;3.00;3.00;;;;;;;;5035838;28;11537;-76
2022/04/08 13:33:10;;;;;;;;;0.75;0.75;;;;;;;;5044613;28;11534;-75
2022/04/08 13:35:37;;;;;;;;;1.00;1.00;;;;;;;;5033668;28;11515;-77
2022/04/08 13:38:05;;;;;;;;;1.25;1.25;;;;;;;;5046582;28;11554;-76
2022/04/08 13:40:32;;;;;;;;;0.00;0.00;;;;;;;;5040909;28;11524;-75
2022/04/08 13:43:02;;;;;;;;;0.00;0.00;;;;;;;;5029857;28;11558;-76
2022/04/08 13:45:29;;;;;;;;;1.00;1.00;;;;;;;;5043180;28;11497;-75
2022/04/08 13:47:56;;;;;;;;;1.00;1.00;;;;;;;;5045353;28;11531;-75
2022/04/08 13:50:25;;;;;;;;;1.75;1.75;;;;;;;;5076780;28;11603;-77
2022/04/08 13:52:52;;;;;;;;;1.00;1.00;;;;;;;;5041987;28;12311;-76
2022/04/08 13:55:20;;;;;;;;;0.00;0.00;;;;;;;;5046712;28;11621;-78
2022/04/08 13:57:47;;;;;;;;;0.50;0.50;;;;;;;;5046195;28;11540;-78
2022/04/08 14:00:15;;;;;;;;;0.50;0.50;;;;;;;;5045500;28;11535;-77
2022/04/08 14:02:42;;;;;;;;;1.00;1.00;;;;;;;;5046304;28;11502;-79
2022/04/08 14:05:11;;;;;;;;;0.00;0.00;;;;;;;;5046173;28;11634;-78
2022/04/08 14:07:40;;;;;;;;;1.25;1.25;;;;;;;;5078022;28;11511;-79
2022/04/08 14:10:07;;;;;;;;;1.00;1.00;;;;;;;;5044928;28;12332;-79
2022/04/08 14:12:35;;;;;;;;;0.75;0.75;;;;;;;;5045894;28;12296;-77
2022/04/08 14:15:02;;;;;;;;;1.00;1.00;;;;;;;;5045508;28;11522;-80
2022/04/08 14:17:29;;;;;;;;;1.00;1.00;;;;;;;;5045352;28;12311;-78
2022/04/08 14:19:57;;;;;;;;;0.50;0.50;;;;;;;;5046051;28;11521;-78
2022/04/08 14:22:24;;;;;;;;;1.00;1.00;;;;;;;;5044778;28;11573;-79
2022/04/08 14:24:53;;;;;;;;;0.75;0.75;;;;;;;;5039854;28;11625;-79
2022/04/08 14:27:20;;;;;;;;;3.00;2.00;;;;;;;;5043991;28;11523;-77
2022/04/08 14:29:48;;;;;;;;;1.00;1.00;;;;;;;;5045842;28;11671;-78
2022/04/08 14:32:15;;;;;;;;;0.00;0.00;;;;;;;;5044400;28;12375;-79
2022/04/08 14:34:42;;;;;;;;;1.00;1.00;;;;;;;;5045875;28;12150;-75
2022/04/08 14:37:10;;;;;;;;;1.00;1.00;;;;;;;;5045604;28;11495;-74
2022/04/08 14:39:37;;;;;;;;;2.00;2.00;;;;;;;;5044869;28;11503;-75
2022/04/08 14:42:07;;;;;;;;;1.50;1.00;;;;;;;;5045174;28;11508;-77
2022/04/08 14:44:34;;;;;;;;;1.00;1.00;;;;;;;;5043006;28;11521;-76
2022/04/08 14:47:02;;;;;;;;;1.00;1.00;;;;;;;;5044910;28;11804;-77
2022/04/08 14:49:29;;;;;;;;;0.25;0.25;;;;;;;;5044400;28;11529;-75